sensor_id;sensor_type;location;lat;lon;timestamp;P1;durP1;ratioP1;P2;durP2;ratioP2
57856;SDS011;43683;48.650;9.290;2023-06-14T00:00:39;6.70;;;3.55;;
57856;SDS011;43683;48.650;9.290;2023-06-14T00:03:07;6.95;;;3.85;;
57856;SDS011;43683;48.650;9.290;2023-06-14T00:05:37;8.00;;;4.00;;
57856;SDS011;43683;48.650;9.290;2023-06-14T00:08:07;8.07;;;4.10;;
57856;SDS011;43683;48.650;9.290;2023-06-14T00:10:34;6.70;;;3.60;;
57856;SDS011;43683;48.650;9.290;2023-06-14T00:13:01;10.30;;;4.68;;
57856;SDS011;43683;48.650;9.290;2023-06-14T00:15:27;7.57;;;3.93;;
57856;SDS011;43683;48.650;9.290;2023-06-14T00:17:53;8.68;;;4.15;;
57856;SDS011;43683;48.650;9.290;2023-06-14T00:20:19;7.72;;;4.68;;
57856;SDS011;43683;48.650;9.290;2023-06-14T00:22:45;9.98;;;4.45;;
57856;SDS011;43683;48.650;9.290;2023-06-14T00:25:11;11.73;;;5.25;;
57856;SDS011;43683;48.650;9.290;2023-06-14T00:27:36;9.80;;;3.65;;
57856;SDS011;43683;48.650;9.290;2023-06-14T00:30:03;8.73;;;4.32;;
57856;SDS011;43683;48.650;9.290;2023-06-14T00:32:28;8.48;;;4.38;;
57856;SDS011;43683;48.650;9.290;2023-06-14T00:34:54;8.88;;;3.80;;
57856;SDS011;43683;48.650;9.290;2023-06-14T00:37:20;7.78;;;3.90;;
57856;SDS011;43683;48.650;9.290;2023-06-14T00:39:45;9.02;;;4.20;;
57856;SDS011;43683;48.650;9.290;2023-06-14T00:42:11;11.88;;;4.18;;
57856;SDS011;43683;48.650;9.290;2023-06-14T00:44:47;11.52;;;4.15;;
57856;SDS011;43683;48.650;9.290;2023-06-14T00:47:12;9.98;;;4.10;;
57856;SDS011;43683;48.650;9.290;2023-06-14T00:49:38;10.13;;;3.97;;
57856;SDS011;43683;48.650;9.290;2023-06-14T00:52:04;11.35;;;4.43;;
57856;SDS011;43683;48.650;9.290;2023-06-14T00:54:29;9.70;;;4.45;;
57856;SDS011;43683;48.650;9.290;2023-06-14T00:56:55;10.45;;;4.70;;
57856;SDS011;43683;48.650;9.290;2023-06-14T00:59:20;8.85;;;4.50;;
57856;SDS011;43683;48.650;9.290;2023-06-14T01:01:46;8.55;;;4.70;;
57856;SDS011;43683;48.650;9.290;2023-06-14T01:04:13;8.13;;;5.00;;
57856;SDS011;43683;48.650;9.290;2023-06-14T01:06:49;8.13;;;4.53;;
57856;SDS011;43683;48.650;9.290;2023-06-14T01:14:59;7.22;;;4.30;;
57856;SDS011;43683;48.650;9.290;2023-06-14T01:17:26;8.50;;;5.07;;
57856;SDS011;43683;48.650;9.290;2023-06-14T01:19:57;8.35;;;4.50;;
57856;SDS011;43683;48.650;9.290;2023-06-14T01:22:35;7.47;;;4.47;;
57856;SDS011;43683;48.650;9.290;2023-06-14T01:25:01;9.13;;;4.35;;
57856;SDS011;43683;48.650;9.290;2023-06-14T01:27:26;9.45;;;4.85;;
57856;SDS011;43683;48.650;9.290;2023-06-14T01:29:57;13.35;;;5.63;;
57856;SDS011;43683;48.650;9.290;2023-06-14T01:32:24;7.07;;;4.32;;
57856;SDS011;43683;48.650;9.290;2023-06-14T01:34:52;8.15;;;4.75;;
57856;SDS011;43683;48.650;9.290;2023-06-14T01:37:18;7.75;;;4.45;;
57856;SDS011;43683;48.650;9.290;2023-06-14T01:39:45;9.25;;;4.95;;
57856;SDS011;43683;48.650;9.290;2023-06-14T01:42:11;7.35;;;4.63;;
57856;SDS011;43683;48.650;9.290;2023-06-14T01:44:38;7.07;;;4.63;;
57856;SDS011;43683;48.650;9.290;2023-06-14T01:47:06;8.30;;;4.50;;
57856;SDS011;43683;48.650;9.290;2023-06-14T01:49:33;9.90;;;4.85;;
57856;SDS011;43683;48.650;9.290;2023-06-14T01:51:59;6.93;;;4.30;;
57856;SDS011;43683;48.650;9.290;2023-06-14T01:54:25;8.82;;;4.68;;
57856;SDS011;43683;48.650;9.290;2023-06-14T01:56:52;7.70;;;4.68;;
57856;SDS011;43683;48.650;9.290;2023-06-14T01:59:17;9.93;;;4.88;;
57856;SDS011;43683;48.650;9.290;2023-06-14T02:01:43;9.13;;;5.53;;
57856;SDS011;43683;48.650;9.290;2023-06-14T02:04:11;8.85;;;5.55;;
57856;SDS011;43683;48.650;9.290;2023-06-14T02:06:36;6.78;;;5.13;;
57856;SDS011;43683;48.650;9.290;2023-06-14T02:09:02;8.10;;;4.82;;
57856;SDS011;43683;48.650;9.290;2023-06-14T02:11:28;8.02;;;5.15;;
57856;SDS011;43683;48.650;9.290;2023-06-14T02:13:53;8.02;;;4.93;;
57856;SDS011;43683;48.650;9.290;2023-06-14T02:16:20;9.15;;;4.95;;
57856;SDS011;43683;48.650;9.290;2023-06-14T02:18:46;16.73;;;5.93;;
57856;SDS011;43683;48.650;9.290;2023-06-14T02:21:13;9.68;;;5.57;;
57856;SDS011;43683;48.650;9.290;2023-06-14T02:23:39;7.78;;;5.22;;
57856;SDS011;43683;48.650;9.290;2023-06-14T02:26:04;6.93;;;4.70;;
57856;SDS011;43683;48.650;9.290;2023-06-14T02:28:30;7.15;;;4.63;;
57856;SDS011;43683;48.650;9.290;2023-06-14T02:30:56;8.80;;;5.03;;
57856;SDS011;43683;48.650;9.290;2023-06-14T02:33:21;8.75;;;5.25;;
57856;SDS011;43683;48.650;9.290;2023-06-14T02:35:47;11.85;;;5.25;;
57856;SDS011;43683;48.650;9.290;2023-06-14T02:38:13;9.68;;;5.78;;
57856;SDS011;43683;48.650;9.290;2023-06-14T02:40:38;9.52;;;5.63;;
57856;SDS011;43683;48.650;9.290;2023-06-14T02:43:05;9.70;;;5.15;;
57856;SDS011;43683;48.650;9.290;2023-06-14T02:45:31;12.10;;;4.80;;
57856;SDS011;43683;48.650;9.290;2023-06-14T02:47:56;7.53;;;5.15;;
57856;SDS011;43683;48.650;9.290;2023-06-14T02:50:22;8.90;;;5.15;;
57856;SDS011;43683;48.650;9.290;2023-06-14T02:52:48;9.73;;;5.57;;
57856;SDS011;43683;48.650;9.290;2023-06-14T02:55:14;11.38;;;5.78;;
57856;SDS011;43683;48.650;9.290;2023-06-14T02:57:39;9.38;;;4.95;;
57856;SDS011;43683;48.650;9.290;2023-06-14T03:00:05;7.93;;;5.03;;
57856;SDS011;43683;48.650;9.290;2023-06-14T03:02:34;10.30;;;5.10;;
57856;SDS011;43683;48.650;9.290;2023-06-14T03:05:00;11.45;;;5.55;;
57856;SDS011;43683;48.650;9.290;2023-06-14T03:07:26;10.00;;;5.60;;
57856;SDS011;43683;48.650;9.290;2023-06-14T03:09:52;10.93;;;4.93;;
57856;SDS011;43683;48.650;9.290;2023-06-14T03:12:18;8.15;;;4.80;;
57856;SDS011;43683;48.650;9.290;2023-06-14T03:14:43;8.77;;;5.50;;
57856;SDS011;43683;48.650;9.290;2023-06-14T03:17:10;8.07;;;4.83;;
57856;SDS011;43683;48.650;9.290;2023-06-14T03:19:36;7.43;;;4.72;;
57856;SDS011;43683;48.650;9.290;2023-06-14T03:22:01;9.02;;;4.90;;
57856;SDS011;43683;48.650;9.290;2023-06-14T03:24:27;7.70;;;4.38;;
57856;SDS011;43683;48.650;9.290;2023-06-14T03:26:53;8.27;;;4.30;;
57856;SDS011;43683;48.650;9.290;2023-06-14T03:29:19;8.43;;;4.95;;
57856;SDS011;43683;48.650;9.290;2023-06-14T03:31:58;8.63;;;4.97;;
57856;SDS011;43683;48.650;9.290;2023-06-14T03:34:25;9.55;;;4.90;;
57856;SDS011;43683;48.650;9.290;2023-06-14T03:36:51;7.75;;;4.60;;
57856;SDS011;43683;48.650;9.290;2023-06-14T03:39:17;8.00;;;4.93;;
57856;SDS011;43683;48.650;9.290;2023-06-14T03:41:42;10.43;;;5.18;;
57856;SDS011;43683;48.650;9.290;2023-06-14T03:44:08;7.28;;;4.47;;
57856;SDS011;43683;48.650;9.290;2023-06-14T03:46:33;7.85;;;5.18;;
57856;SDS011;43683;48.650;9.290;2023-06-14T03:48:59;8.18;;;5.28;;
57856;SDS011;43683;48.650;9.290;2023-06-14T03:51:25;8.77;;;5.05;;
57856;SDS011;43683;48.650;9.290;2023-06-14T03:53:51;7.43;;;4.70;;
57856;SDS011;43683;48.650;9.290;2023-06-14T03:56:16;9.02;;;5.00;;
57856;SDS011;43683;48.650;9.290;2023-06-14T03:58:42;8.13;;;4.53;;
57856;SDS011;43683;48.650;9.290;2023-06-14T04:01:07;8.02;;;4.72;;
57856;SDS011;43683;48.650;9.290;2023-06-14T04:03:33;9.55;;;5.07;;
57856;SDS011;43683;48.650;9.290;2023-06-14T04:05:58;8.52;;;5.30;;
57856;SDS011;43683;48.650;9.290;2023-06-14T04:08:24;9.32;;;5.40;;
57856;SDS011;43683;48.650;9.290;2023-06-14T04:10:50;10.40;;;4.68;;
57856;SDS011;43683;48.650;9.290;2023-06-14T04:13:16;10.18;;;5.13;;
57856;SDS011;43683;48.650;9.290;2023-06-14T04:15:42;8.35;;;4.82;;
57856;SDS011;43683;48.650;9.290;2023-06-14T04:18:08;9.63;;;4.65;;
57856;SDS011;43683;48.650;9.290;2023-06-14T04:20:35;8.77;;;4.95;;
57856;SDS011;43683;48.650;9.290;2023-06-14T04:23:13;7.93;;;5.18;;
57856;SDS011;43683;48.650;9.290;2023-06-14T04:25:42;10.00;;;4.85;;
57856;SDS011;43683;48.650;9.290;2023-06-14T04:28:10;10.02;;;5.38;;
57856;SDS011;43683;48.650;9.290;2023-06-14T04:30:36;7.22;;;4.60;;
57856;SDS011;43683;48.650;9.290;2023-06-14T04:33:04;8.52;;;5.10;;
57856;SDS011;43683;48.650;9.290;2023-06-14T04:35:30;11.18;;;5.78;;
57856;SDS011;43683;48.650;9.290;2023-06-14T04:37:57;10.05;;;6.75;;
57856;SDS011;43683;48.650;9.290;2023-06-14T04:40:23;8.45;;;5.32;;
57856;SDS011;43683;48.650;9.290;2023-06-14T04:42:49;9.75;;;5.38;;
57856;SDS011;43683;48.650;9.290;2023-06-14T04:45:15;10.20;;;5.70;;
57856;SDS011;43683;48.650;9.290;2023-06-14T04:47:41;10.93;;;5.65;;
57856;SDS011;43683;48.650;9.290;2023-06-14T04:50:09;11.40;;;5.90;;
57856;SDS011;43683;48.650;9.290;2023-06-14T04:52:35;9.95;;;5.60;;
57856;SDS011;43683;48.650;9.290;2023-06-14T04:55:02;10.30;;;5.97;;
57856;SDS011;43683;48.650;9.290;2023-06-14T04:57:28;9.38;;;5.28;;
57856;SDS011;43683;48.650;9.290;2023-06-14T04:59:53;10.43;;;5.57;;
57856;SDS011;43683;48.650;9.290;2023-06-14T05:02:20;9.93;;;6.15;;
57856;SDS011;43683;48.650;9.290;2023-06-14T05:04:50;9.60;;;5.32;;
57856;SDS011;43683;48.650;9.290;2023-06-14T05:07:17;9.10;;;5.65;;
57856;SDS011;43683;48.650;9.290;2023-06-14T05:09:42;7.10;;;4.78;;
57856;SDS011;43683;48.650;9.290;2023-06-14T05:12:09;7.25;;;4.85;;
57856;SDS011;43683;48.650;9.290;2023-06-14T05:14:35;10.73;;;5.28;;
57856;SDS011;43683;48.650;9.290;2023-06-14T05:17:01;9.27;;;5.45;;
57856;SDS011;43683;48.650;9.290;2023-06-14T05:19:27;9.13;;;4.63;;
57856;SDS011;43683;48.650;9.290;2023-06-14T05:21:53;8.65;;;5.10;;
57856;SDS011;43683;48.650;9.290;2023-06-14T05:24:19;7.68;;;5.10;;
57856;SDS011;43683;48.650;9.290;2023-06-14T05:26:45;7.95;;;4.65;;
57856;SDS011;43683;48.650;9.290;2023-06-14T05:29:11;9.90;;;4.90;;
57856;SDS011;43683;48.650;9.290;2023-06-14T05:31:37;9.57;;;5.00;;
57856;SDS011;43683;48.650;9.290;2023-06-14T05:34:02;11.57;;;4.90;;
57856;SDS011;43683;48.650;9.290;2023-06-14T05:36:28;8.05;;;4.80;;
57856;SDS011;43683;48.650;9.290;2023-06-14T05:38:54;7.65;;;4.55;;
57856;SDS011;43683;48.650;9.290;2023-06-14T05:41:23;16.40;;;4.80;;
57856;SDS011;43683;48.650;9.290;2023-06-14T05:43:50;9.52;;;4.82;;
57856;SDS011;43683;48.650;9.290;2023-06-14T05:46:16;8.98;;;4.82;;
57856;SDS011;43683;48.650;9.290;2023-06-14T05:48:46;7.22;;;4.47;;
57856;SDS011;43683;48.650;9.290;2023-06-14T05:51:12;8.32;;;4.90;;
57856;SDS011;43683;48.650;9.290;2023-06-14T05:53:38;7.45;;;4.30;;
57856;SDS011;43683;48.650;9.290;2023-06-14T05:56:03;9.07;;;4.95;;
57856;SDS011;43683;48.650;9.290;2023-06-14T05:58:29;8.55;;;4.30;;
57856;SDS011;43683;48.650;9.290;2023-06-14T06:00:55;8.43;;;5.00;;
57856;SDS011;43683;48.650;9.290;2023-06-14T06:03:20;7.10;;;5.13;;
57856;SDS011;43683;48.650;9.290;2023-06-14T06:05:46;13.38;;;5.28;;
57856;SDS011;43683;48.650;9.290;2023-06-14T06:08:11;8.90;;;4.90;;
57856;SDS011;43683;48.650;9.290;2023-06-14T06:10:38;6.60;;;4.50;;
57856;SDS011;43683;48.650;9.290;2023-06-14T06:13:04;8.88;;;4.57;;
57856;SDS011;43683;48.650;9.290;2023-06-14T06:15:29;8.88;;;5.00;;
57856;SDS011;43683;48.650;9.290;2023-06-14T06:17:55;8.13;;;4.60;;
57856;SDS011;43683;48.650;9.290;2023-06-14T06:20:20;8.05;;;5.05;;
57856;SDS011;43683;48.650;9.290;2023-06-14T06:22:52;7.78;;;5.05;;
57856;SDS011;43683;48.650;9.290;2023-06-14T06:25:18;7.28;;;4.13;;
57856;SDS011;43683;48.650;9.290;2023-06-14T06:27:44;7.38;;;4.43;;
57856;SDS011;43683;48.650;9.290;2023-06-14T06:30:10;7.78;;;4.55;;
57856;SDS011;43683;48.650;9.290;2023-06-14T06:32:36;8.82;;;4.70;;
57856;SDS011;43683;48.650;9.290;2023-06-14T06:35:02;6.93;;;4.32;;
57856;SDS011;43683;48.650;9.290;2023-06-14T06:37:28;8.80;;;4.63;;
57856;SDS011;43683;48.650;9.290;2023-06-14T06:39:53;10.48;;;4.35;;
57856;SDS011;43683;48.650;9.290;2023-06-14T06:42:19;9.10;;;4.53;;
57856;SDS011;43683;48.650;9.290;2023-06-14T06:44:45;9.70;;;4.38;;
57856;SDS011;43683;48.650;9.290;2023-06-14T06:47:10;7.40;;;4.93;;
57856;SDS011;43683;48.650;9.290;2023-06-14T06:49:36;5.97;;;3.78;;
57856;SDS011;43683;48.650;9.290;2023-06-14T06:52:02;6.15;;;3.50;;
57856;SDS011;43683;48.650;9.290;2023-06-14T06:54:29;6.00;;;3.83;;
57856;SDS011;43683;48.650;9.290;2023-06-14T06:56:54;5.85;;;3.58;;
57856;SDS011;43683;48.650;9.290;2023-06-14T06:59:20;7.68;;;3.35;;
57856;SDS011;43683;48.650;9.290;2023-06-14T07:01:46;6.50;;;3.88;;
57856;SDS011;43683;48.650;9.290;2023-06-14T07:04:12;7.55;;;4.03;;
57856;SDS011;43683;48.650;9.290;2023-06-14T07:06:38;6.15;;;3.47;;
57856;SDS011;43683;48.650;9.290;2023-06-14T07:09:03;7.50;;;3.47;;
57856;SDS011;43683;48.650;9.290;2023-06-14T07:11:33;6.53;;;3.20;;
57856;SDS011;43683;48.650;9.290;2023-06-14T07:13:58;6.85;;;3.50;;
57856;SDS011;43683;48.650;9.290;2023-06-14T07:16:24;4.72;;;3.25;;
57856;SDS011;43683;48.650;9.290;2023-06-14T07:18:50;6.93;;;3.50;;
57856;SDS011;43683;48.650;9.290;2023-06-14T07:21:17;5.32;;;3.10;;
57856;SDS011;43683;48.650;9.290;2023-06-14T07:23:42;4.95;;;3.20;;
57856;SDS011;43683;48.650;9.290;2023-06-14T07:26:08;8.30;;;3.60;;
57856;SDS011;43683;48.650;9.290;2023-06-14T07:28:33;6.18;;;3.22;;
57856;SDS011;43683;48.650;9.290;2023-06-14T07:30:59;10.27;;;3.72;;
57856;SDS011;43683;48.650;9.290;2023-06-14T07:33:25;6.57;;;2.90;;
57856;SDS011;43683;48.650;9.290;2023-06-14T07:35:50;6.43;;;3.95;;
57856;SDS011;43683;48.650;9.290;2023-06-14T07:38:17;5.30;;;3.28;;
57856;SDS011;43683;48.650;9.290;2023-06-14T07:40:43;9.77;;;4.47;;
57856;SDS011;43683;48.650;9.290;2023-06-14T07:43:08;6.65;;;3.17;;
57856;SDS011;43683;48.650;9.290;2023-06-14T07:45:34;6.00;;;3.55;;
57856;SDS011;43683;48.650;9.290;2023-06-14T07:48:00;6.47;;;4.30;;
57856;SDS011;43683;48.650;9.290;2023-06-14T07:50:25;5.65;;;3.00;;
57856;SDS011;43683;48.650;9.290;2023-06-14T07:52:51;7.07;;;3.33;;
57856;SDS011;43683;48.650;9.290;2023-06-14T07:55:16;6.70;;;4.38;;
57856;SDS011;43683;48.650;9.290;2023-06-14T07:57:42;5.93;;;3.20;;
57856;SDS011;43683;48.650;9.290;2023-06-14T08:00:09;6.25;;;3.80;;
57856;SDS011;43683;48.650;9.290;2023-06-14T08:02:40;6.82;;;3.50;;
57856;SDS011;43683;48.650;9.290;2023-06-14T08:05:09;6.30;;;3.10;;
57856;SDS011;43683;48.650;9.290;2023-06-14T08:07:36;5.35;;;3.70;;
57856;SDS011;43683;48.650;9.290;2023-06-14T08:10:02;6.13;;;3.35;;
57856;SDS011;43683;48.650;9.290;2023-06-14T08:12:28;5.18;;;3.33;;
57856;SDS011;43683;48.650;9.290;2023-06-14T08:14:53;6.40;;;3.67;;
57856;SDS011;43683;48.650;9.290;2023-06-14T08:17:19;7.95;;;3.47;;
57856;SDS011;43683;48.650;9.290;2023-06-14T08:19:45;5.30;;;3.22;;
57856;SDS011;43683;48.650;9.290;2023-06-14T08:22:10;7.13;;;3.28;;
57856;SDS011;43683;48.650;9.290;2023-06-14T08:24:37;7.78;;;3.38;;
57856;SDS011;43683;48.650;9.290;2023-06-14T08:27:04;6.07;;;3.40;;
57856;SDS011;43683;48.650;9.290;2023-06-14T08:29:30;6.82;;;3.40;;
57856;SDS011;43683;48.650;9.290;2023-06-14T08:31:56;7.22;;;4.10;;
57856;SDS011;43683;48.650;9.290;2023-06-14T08:34:22;5.57;;;3.45;;
57856;SDS011;43683;48.650;9.290;2023-06-14T08:36:48;6.40;;;3.67;;
57856;SDS011;43683;48.650;9.290;2023-06-14T08:39:17;7.72;;;3.45;;
57856;SDS011;43683;48.650;9.290;2023-06-14T08:41:45;6.80;;;3.50;;
57856;SDS011;43683;48.650;9.290;2023-06-14T08:44:13;6.57;;;3.22;;
57856;SDS011;43683;48.650;9.290;2023-06-14T08:49:06;6.47;;;3.70;;
57856;SDS011;43683;48.650;9.290;2023-06-14T08:51:35;4.55;;;3.25;;
57856;SDS011;43683;48.650;9.290;2023-06-14T08:54:02;5.35;;;3.33;;
57856;SDS011;43683;48.650;9.290;2023-06-14T08:58:55;5.72;;;3.67;;
57856;SDS011;43683;48.650;9.290;2023-06-14T09:01:30;7.85;;;3.78;;
57856;SDS011;43683;48.650;9.290;2023-06-14T09:03:59;6.63;;;3.75;;
57856;SDS011;43683;48.650;9.290;2023-06-14T09:06:24;5.35;;;3.00;;
57856;SDS011;43683;48.650;9.290;2023-06-14T09:08:50;5.95;;;3.78;;
57856;SDS011;43683;48.650;9.290;2023-06-14T09:11:17;10.10;;;3.70;;
57856;SDS011;43683;48.650;9.290;2023-06-14T09:13:44;7.00;;;2.88;;
57856;SDS011;43683;48.650;9.290;2023-06-14T09:16:11;4.35;;;3.40;;
57856;SDS011;43683;48.650;9.290;2023-06-14T09:18:37;5.15;;;3.13;;
57856;SDS011;43683;48.650;9.290;2023-06-14T09:21:06;5.35;;;3.25;;
57856;SDS011;43683;48.650;9.290;2023-06-14T09:23:39;6.30;;;3.28;;
57856;SDS011;43683;48.650;9.290;2023-06-14T09:26:07;5.38;;;3.40;;
57856;SDS011;43683;48.650;9.290;2023-06-14T09:28:41;5.63;;;3.35;;
57856;SDS011;43683;48.650;9.290;2023-06-14T09:31:11;4.72;;;3.10;;
57856;SDS011;43683;48.650;9.290;2023-06-14T09:33:38;6.88;;;3.03;;
57856;SDS011;43683;48.650;9.290;2023-06-14T09:36:04;8.30;;;3.17;;
57856;SDS011;43683;48.650;9.290;2023-06-14T09:38:34;5.95;;;3.25;;
57856;SDS011;43683;48.650;9.290;2023-06-14T09:41:00;6.15;;;3.28;;
57856;SDS011;43683;48.650;9.290;2023-06-14T09:43:28;4.60;;;3.03;;
57856;SDS011;43683;48.650;9.290;2023-06-14T09:45:54;5.53;;;3.20;;
57856;SDS011;43683;48.650;9.290;2023-06-14T09:48:20;4.45;;;2.72;;
57856;SDS011;43683;48.650;9.290;2023-06-14T09:50:46;4.88;;;2.78;;
57856;SDS011;43683;48.650;9.290;2023-06-14T09:53:13;6.55;;;3.00;;
57856;SDS011;43683;48.650;9.290;2023-06-14T09:58:07;4.05;;;2.67;;
57856;SDS011;43683;48.650;9.290;2023-06-14T10:00:33;5.82;;;2.55;;
57856;SDS011;43683;48.650;9.290;2023-06-14T10:03:09;5.97;;;2.88;;
57856;SDS011;43683;48.650;9.290;2023-06-14T10:05:42;8.13;;;2.78;;
57856;SDS011;43683;48.650;9.290;2023-06-14T10:08:11;4.55;;;2.70;;
57856;SDS011;43683;48.650;9.290;2023-06-14T10:10:41;5.03;;;2.60;;
57856;SDS011;43683;48.650;9.290;2023-06-14T10:13:07;4.93;;;2.75;;
57856;SDS011;43683;48.650;9.290;2023-06-14T10:21:25;4.18;;;2.60;;
57856;SDS011;43683;48.650;9.290;2023-06-14T10:23:57;4.40;;;3.03;;
57856;SDS011;43683;48.650;9.290;2023-06-14T10:26:28;5.13;;;2.85;;
57856;SDS011;43683;48.650;9.290;2023-06-14T10:28:55;5.90;;;3.13;;
57856;SDS011;43683;48.650;9.290;2023-06-14T10:31:43;4.88;;;3.10;;
57856;SDS011;43683;48.650;9.290;2023-06-14T10:34:20;4.70;;;3.25;;
57856;SDS011;43683;48.650;9.290;2023-06-14T10:39:25;5.47;;;3.20;;
57856;SDS011;43683;48.650;9.290;2023-06-14T10:41:54;5.63;;;3.40;;
57856;SDS011;43683;48.650;9.290;2023-06-14T10:46:46;5.97;;;3.23;;
57856;SDS011;43683;48.650;9.290;2023-06-14T10:49:18;5.25;;;2.60;;
57856;SDS011;43683;48.650;9.290;2023-06-14T10:51:45;4.70;;;2.90;;
57856;SDS011;43683;48.650;9.290;2023-06-14T10:54:16;5.47;;;3.03;;
57856;SDS011;43683;48.650;9.290;2023-06-14T10:56:49;4.13;;;3.30;;
57856;SDS011;43683;48.650;9.290;2023-06-14T10:59:16;7.20;;;2.70;;
57856;SDS011;43683;48.650;9.290;2023-06-14T11:05:02;4.95;;;3.13;;
57856;SDS011;43683;48.650;9.290;2023-06-14T11:07:44;4.53;;;2.83;;
57856;SDS011;43683;48.650;9.290;2023-06-14T11:13:03;5.75;;;3.25;;
57856;SDS011;43683;48.650;9.290;2023-06-14T11:15:32;6.90;;;3.17;;
57856;SDS011;43683;48.650;9.290;2023-06-14T11:18:00;5.63;;;2.88;;
57856;SDS011;43683;48.650;9.290;2023-06-14T11:20:26;6.28;;;3.42;;
57856;SDS011;43683;48.650;9.290;2023-06-14T11:22:54;5.28;;;2.78;;
57856;SDS011;43683;48.650;9.290;2023-06-14T11:25:20;5.10;;;3.27;;
57856;SDS011;43683;48.650;9.290;2023-06-14T11:27:46;6.22;;;3.53;;
57856;SDS011;43683;48.650;9.290;2023-06-14T11:30:12;4.50;;;3.17;;
57856;SDS011;43683;48.650;9.290;2023-06-14T11:32:38;5.53;;;3.20;;
57856;SDS011;43683;48.650;9.290;2023-06-14T11:35:04;5.93;;;3.10;;
57856;SDS011;43683;48.650;9.290;2023-06-14T11:37:31;6.17;;;3.23;;
57856;SDS011;43683;48.650;9.290;2023-06-14T11:40:00;6.45;;;3.28;;
57856;SDS011;43683;48.650;9.290;2023-06-14T11:42:28;5.30;;;3.35;;
57856;SDS011;43683;48.650;9.290;2023-06-14T11:44:55;4.60;;;3.10;;
57856;SDS011;43683;48.650;9.290;2023-06-14T11:47:21;6.03;;;3.47;;
57856;SDS011;43683;48.650;9.290;2023-06-14T11:49:47;4.53;;;3.08;;
57856;SDS011;43683;48.650;9.290;2023-06-14T11:52:13;5.90;;;3.33;;
57856;SDS011;43683;48.650;9.290;2023-06-14T11:54:39;5.90;;;3.33;;
57856;SDS011;43683;48.650;9.290;2023-06-14T11:57:06;5.80;;;3.05;;
57856;SDS011;43683;48.650;9.290;2023-06-14T11:59:32;5.53;;;3.50;;
57856;SDS011;43683;48.650;9.290;2023-06-14T12:02:05;5.10;;;3.20;;
57856;SDS011;43683;48.650;9.290;2023-06-14T12:04:31;4.80;;;3.20;;
57856;SDS011;43683;48.650;9.290;2023-06-14T12:07:08;6.20;;;3.07;;
57856;SDS011;43683;48.650;9.290;2023-06-14T12:09:39;6.35;;;3.30;;
57856;SDS011;43683;48.650;9.290;2023-06-14T12:12:26;4.07;;;2.90;;
57856;SDS011;43683;48.650;9.290;2023-06-14T12:14:52;7.20;;;3.10;;
57856;SDS011;43683;48.650;9.290;2023-06-14T12:17:20;5.15;;;3.25;;
57856;SDS011;43683;48.650;9.290;2023-06-14T12:19:46;5.75;;;3.10;;
57856;SDS011;43683;48.650;9.290;2023-06-14T12:22:15;4.68;;;3.10;;
57856;SDS011;43683;48.650;9.290;2023-06-14T12:24:42;5.85;;;3.20;;
57856;SDS011;43683;48.650;9.290;2023-06-14T12:27:08;4.30;;;2.80;;
57856;SDS011;43683;48.650;9.290;2023-06-14T12:29:36;9.57;;;3.85;;
57856;SDS011;43683;48.650;9.290;2023-06-14T12:32:02;7.00;;;3.17;;
57856;SDS011;43683;48.650;9.290;2023-06-14T12:34:28;6.40;;;3.38;;
57856;SDS011;43683;48.650;9.290;2023-06-14T12:36:54;5.22;;;3.20;;
57856;SDS011;43683;48.650;9.290;2023-06-14T12:39:19;7.53;;;2.95;;
57856;SDS011;43683;48.650;9.290;2023-06-14T12:41:46;8.73;;;5.57;;
57856;SDS011;43683;48.650;9.290;2023-06-14T12:44:12;6.33;;;3.10;;
57856;SDS011;43683;48.650;9.290;2023-06-14T12:46:38;4.40;;;2.80;;
57856;SDS011;43683;48.650;9.290;2023-06-14T12:49:05;5.38;;;2.83;;
57856;SDS011;43683;48.650;9.290;2023-06-14T12:51:32;5.00;;;2.80;;
57856;SDS011;43683;48.650;9.290;2023-06-14T12:53:58;4.87;;;3.20;;
57856;SDS011;43683;48.650;9.290;2023-06-14T12:56:24;5.30;;;3.33;;
57856;SDS011;43683;48.650;9.290;2023-06-14T12:58:49;6.33;;;3.20;;
57856;SDS011;43683;48.650;9.290;2023-06-14T13:01:15;5.27;;;3.07;;
57856;SDS011;43683;48.650;9.290;2023-06-14T13:03:40;5.20;;;2.63;;
57856;SDS011;43683;48.650;9.290;2023-06-14T13:06:06;6.17;;;3.20;;
57856;SDS011;43683;48.650;9.290;2023-06-14T13:08:31;5.37;;;3.23;;
57856;SDS011;43683;48.650;9.290;2023-06-14T13:10:57;5.90;;;3.00;;
57856;SDS011;43683;48.650;9.290;2023-06-14T13:13:23;3.93;;;2.80;;
57856;SDS011;43683;48.650;9.290;2023-06-14T13:15:48;4.77;;;2.80;;
57856;SDS011;43683;48.650;9.290;2023-06-14T13:18:15;5.63;;;3.10;;
57856;SDS011;43683;48.650;9.290;2023-06-14T13:20:40;5.67;;;3.23;;
57856;SDS011;43683;48.650;9.290;2023-06-14T13:23:07;4.65;;;3.22;;
57856;SDS011;43683;48.650;9.290;2023-06-14T13:25:35;5.80;;;3.00;;
57856;SDS011;43683;48.650;9.290;2023-06-14T13:28:03;5.68;;;2.63;;
57856;SDS011;43683;48.650;9.290;2023-06-14T13:32:55;4.32;;;2.78;;
57856;SDS011;43683;48.650;9.290;2023-06-14T13:35:21;6.57;;;2.92;;
57856;SDS011;43683;48.650;9.290;2023-06-14T13:40:13;4.72;;;2.90;;
57856;SDS011;43683;48.650;9.290;2023-06-14T13:42:39;4.07;;;2.70;;
57856;SDS011;43683;48.650;9.290;2023-06-14T13:45:05;6.70;;;3.00;;
57856;SDS011;43683;48.650;9.290;2023-06-14T13:47:32;5.10;;;2.85;;
57856;SDS011;43683;48.650;9.290;2023-06-14T13:49:57;4.07;;;2.43;;
57856;SDS011;43683;48.650;9.290;2023-06-14T13:52:23;4.37;;;2.93;;
57856;SDS011;43683;48.650;9.290;2023-06-14T13:54:49;4.47;;;2.95;;
57856;SDS011;43683;48.650;9.290;2023-06-14T13:57:14;4.30;;;2.70;;
57856;SDS011;43683;48.650;9.290;2023-06-14T13:59:41;4.97;;;2.90;;
57856;SDS011;43683;48.650;9.290;2023-06-14T14:02:08;4.00;;;2.75;;
57856;SDS011;43683;48.650;9.290;2023-06-14T14:04:34;3.57;;;2.50;;
57856;SDS011;43683;48.650;9.290;2023-06-14T14:07:03;6.68;;;3.08;;
57856;SDS011;43683;48.650;9.290;2023-06-14T14:11:55;6.72;;;2.72;;
57856;SDS011;43683;48.650;9.290;2023-06-14T14:14:21;3.80;;;2.70;;
57856;SDS011;43683;48.650;9.290;2023-06-14T14:16:47;5.63;;;3.10;;
57856;SDS011;43683;48.650;9.290;2023-06-14T14:19:13;5.33;;;2.90;;
57856;SDS011;43683;48.650;9.290;2023-06-14T14:21:39;6.30;;;3.00;;
57856;SDS011;43683;48.650;9.290;2023-06-14T14:24:04;4.47;;;2.70;;
57856;SDS011;43683;48.650;9.290;2023-06-14T14:26:30;4.97;;;2.80;;
57856;SDS011;43683;48.650;9.290;2023-06-14T14:28:55;4.17;;;3.10;;
57856;SDS011;43683;48.650;9.290;2023-06-14T14:31:21;5.63;;;2.80;;
57856;SDS011;43683;48.650;9.290;2023-06-14T14:33:46;4.23;;;2.80;;
57856;SDS011;43683;48.650;9.290;2023-06-14T14:36:12;4.87;;;3.13;;
57856;SDS011;43683;48.650;9.290;2023-06-14T14:38:38;5.05;;;3.05;;
57856;SDS011;43683;48.650;9.290;2023-06-14T14:41:04;5.13;;;3.00;;
57856;SDS011;43683;48.650;9.290;2023-06-14T14:43:30;7.47;;;3.00;;
57856;SDS011;43683;48.650;9.290;2023-06-14T14:45:56;6.55;;;2.80;;
57856;SDS011;43683;48.650;9.290;2023-06-14T14:48:22;5.57;;;2.93;;
57856;SDS011;43683;48.650;9.290;2023-06-14T14:50:48;4.57;;;3.07;;
57856;SDS011;43683;48.650;9.290;2023-06-14T14:53:13;4.83;;;3.20;;
57856;SDS011;43683;48.650;9.290;2023-06-14T14:55:41;5.00;;;2.97;;
57856;SDS011;43683;48.650;9.290;2023-06-14T14:58:07;5.60;;;3.03;;
57856;SDS011;43683;48.650;9.290;2023-06-14T15:00:33;4.47;;;3.07;;
57856;SDS011;43683;48.650;9.290;2023-06-14T15:02:59;3.95;;;2.78;;
57856;SDS011;43683;48.650;9.290;2023-06-14T15:05:25;4.33;;;3.00;;
57856;SDS011;43683;48.650;9.290;2023-06-14T15:07:51;5.00;;;3.17;;
57856;SDS011;43683;48.650;9.290;2023-06-14T15:10:16;6.67;;;3.10;;
57856;SDS011;43683;48.650;9.290;2023-06-14T15:12:42;4.00;;;2.67;;
57856;SDS011;43683;48.650;9.290;2023-06-14T15:15:07;5.37;;;3.03;;
57856;SDS011;43683;48.650;9.290;2023-06-14T15:17:34;5.18;;;2.70;;
57856;SDS011;43683;48.650;9.290;2023-06-14T15:19:59;4.40;;;2.83;;